sensor_id;sensor_type;location;lat;lon;timestamp;pressure;altitude;pressure_sealevel;temperature;humidity
74633;BME280;63139;52.018;8.552;2023-05-07T00:02:01;100643.97;;;12.99;79.94
74633;BME280;63139;52.018;8.552;2023-05-07T00:04:31;100644.97;;;12.98;80.34
74633;BME280;63139;52.018;8.552;2023-05-07T00:07:03;100639.19;;;12.95;80.38
74633;BME280;63139;52.018;8.552;2023-05-07T00:09:32;100640.38;;;12.92;80.22
74633;BME280;63139;52.018;8.552;2023-05-07T00:12:00;100641.38;;;12.91;80.34
74633;BME280;63139;52.018;8.552;2023-05-07T00:14:29;100640.75;;;12.89;80.68
74633;BME280;63139;52.018;8.552;2023-05-07T00:16:57;100648.91;;;12.88;80.55
74633;BME280;63139;52.018;8.552;2023-05-07T00:19:25;100653.72;;;12.84;80.46
74633;BME280;63139;52.018;8.552;2023-05-07T00:21:54;100655.94;;;12.80;80.42
74633;BME280;63139;52.018;8.552;2023-05-07T00:24:23;100658.75;;;12.79;80.54
74633;BME280;63139;52.018;8.552;2023-05-07T00:26:52;100661.59;;;12.77;80.76
74633;BME280;63139;52.018;8.552;2023-05-07T00:29:20;100659.31;;;12.74;80.82
74633;BME280;63139;52.018;8.552;2023-05-07T00:31:49;100664.78;;;12.73;80.87
74633;BME280;63139;52.018;8.552;2023-05-07T00:34:17;100666.44;;;12.74;80.73
74633;BME280;63139;52.018;8.552;2023-05-07T00:36:45;100669.44;;;12.71;80.95
74633;BME280;63139;52.018;8.552;2023-05-07T00:39:15;100666.97;;;12.69;80.67
74633;BME280;63139;52.018;8.552;2023-05-07T00:41:43;100667.13;;;12.68;80.76
74633;BME280;63139;52.018;8.552;2023-05-07T00:44:11;100667.34;;;12.66;81.13
74633;BME280;63139;52.018;8.552;2023-05-07T00:46:40;100665.66;;;12.65;80.92
74633;BME280;63139;52.018;8.552;2023-05-07T00:49:08;100661.34;;;12.64;80.83
74633;BME280;63139;52.018;8.552;2023-05-07T00:51:36;100655.38;;;12.62;80.61
74633;BME280;63139;52.018;8.552;2023-05-07T00:54:05;100653.91;;;12.60;80.81
74633;BME280;63139;52.018;8.552;2023-05-07T00:56:34;100662.06;;;12.58;81.10
74633;BME280;63139;52.018;8.552;2023-05-07T00:59:03;100663.25;;;12.56;80.79
74633;BME280;63139;52.018;8.552;2023-05-07T01:01:31;100662.94;;;12.51;81.20
74633;BME280;63139;52.018;8.552;2023-05-07T01:04:00;100654.31;;;12.49;80.99
74633;BME280;63139;52.018;8.552;2023-05-07T01:06:29;100655.31;;;12.48;80.99
74633;BME280;63139;52.018;8.552;2023-05-07T01:09:00;100659.16;;;12.45;81.26
74633;BME280;63139;52.018;8.552;2023-05-07T01:11:31;100663.81;;;12.43;80.99
74633;BME280;63139;52.018;8.552;2023-05-07T01:14:01;100666.81;;;12.40;81.01
74633;BME280;63139;52.018;8.552;2023-05-07T01:16:29;100668.47;;;12.41;80.97
74633;BME280;63139;52.018;8.552;2023-05-07T01:18:57;100677.63;;;12.38;81.16
74633;BME280;63139;52.018;8.552;2023-05-07T01:21:26;100669.84;;;12.37;81.20
74633;BME280;63139;52.018;8.552;2023-05-07T01:23:59;100673.66;;;12.34;80.91
74633;BME280;63139;52.018;8.552;2023-05-07T01:26:28;100661.38;;;12.33;81.04
74633;BME280;63139;52.018;8.552;2023-05-07T01:28:56;100668.69;;;12.31;81.09
74633;BME280;63139;52.018;8.552;2023-05-07T01:31:24;100685.81;;;12.29;81.37
74633;BME280;63139;52.018;8.552;2023-05-07T01:33:54;100682.34;;;12.28;81.38
74633;BME280;63139;52.018;8.552;2023-05-07T01:36:22;100671.06;;;12.26;81.50
74633;BME280;63139;52.018;8.552;2023-05-07T01:38:54;100666.75;;;12.25;81.55
74633;BME280;63139;52.018;8.552;2023-05-07T01:41:26;100673.03;;;12.24;81.39
74633;BME280;63139;52.018;8.552;2023-05-07T01:43:54;100666.28;;;12.22;81.69
74633;BME280;63139;52.018;8.552;2023-05-07T01:46:23;100673.41;;;12.21;81.44
74633;BME280;63139;52.018;8.552;2023-05-07T01:48:52;100669.94;;;12.21;81.63
74633;BME280;63139;52.018;8.552;2023-05-07T01:51:21;100667.44;;;12.19;81.60
74633;BME280;63139;52.018;8.552;2023-05-07T01:53:49;100668.44;;;12.18;81.50
74633;BME280;63139;52.018;8.552;2023-05-07T01:56:19;100669.59;;;12.16;81.58
74633;BME280;63139;52.018;8.552;2023-05-07T01:58:50;100673.91;;;12.17;81.73
74633;BME280;63139;52.018;8.552;2023-05-07T02:01:19;100666.16;;;12.15;81.69
74633;BME280;63139;52.018;8.552;2023-05-07T02:03:48;100676.94;;;12.14;82.15
74633;BME280;63139;52.018;8.552;2023-05-07T02:06:22;100669.31;;;12.11;82.12
74633;BME280;63139;52.018;8.552;2023-05-07T02:08:54;100676.44;;;12.10;82.62
74633;BME280;63139;52.018;8.552;2023-05-07T02:11:23;100676.44;;;12.10;81.97
74633;BME280;63139;52.018;8.552;2023-05-07T02:13:53;100674.97;;;12.08;82.09
74633;BME280;63139;52.018;8.552;2023-05-07T02:16:21;100679.47;;;12.07;82.29
74633;BME280;63139;52.018;8.552;2023-05-07T02:18:51;100671.00;;;12.03;82.23
74633;BME280;63139;52.018;8.552;2023-05-07T02:21:19;100676.31;;;12.03;82.38
74633;BME280;63139;52.018;8.552;2023-05-07T02:23:48;100687.25;;;12.00;82.46
74633;BME280;63139;52.018;8.552;2023-05-07T02:26:16;100688.09;;;12.01;82.25
74633;BME280;63139;52.018;8.552;2023-05-07T02:28:44;100685.63;;;11.99;82.31
74633;BME280;63139;52.018;8.552;2023-05-07T02:31:14;100684.97;;;11.97;82.35
74633;BME280;63139;52.018;8.552;2023-05-07T02:33:42;100679.81;;;11.96;82.92
74633;BME280;63139;52.018;8.552;2023-05-07T02:36:13;100686.13;;;11.95;82.38
74633;BME280;63139;52.018;8.552;2023-05-07T02:38:50;100686.28;;;11.93;82.77
74633;BME280;63139;52.018;8.552;2023-05-07T02:41:18;100684.66;;;11.92;82.90
74633;BME280;63139;52.018;8.552;2023-05-07T02:43:47;100690.13;;;11.91;82.61
74633;BME280;63139;52.018;8.552;2023-05-07T02:46:16;100675.38;;;11.88;82.85
74633;BME280;63139;52.018;8.552;2023-05-07T02:48:50;100675.72;;;11.85;82.90
74633;BME280;63139;52.018;8.552;2023-05-07T02:51:20;100682.88;;;11.85;82.94
74633;BME280;63139;52.018;8.552;2023-05-07T02:53:53;100683.84;;;11.84;82.72
74633;BME280;63139;52.018;8.552;2023-05-07T02:56:22;100682.38;;;11.81;82.95
74633;BME280;63139;52.018;8.552;2023-05-07T02:58:50;100683.34;;;11.80;82.88
74633;BME280;63139;52.018;8.552;2023-05-07T03:01:21;100681.88;;;11.78;83.17
74633;BME280;63139;52.018;8.552;2023-05-07T03:03:56;100688.19;;;11.77;83.00
74633;BME280;63139;52.018;8.552;2023-05-07T03:06:24;100683.06;;;11.75;83.43
74633;BME280;63139;52.018;8.552;2023-05-07T03:08:52;100684.88;;;11.75;83.01
74633;BME280;63139;52.018;8.552;2023-05-07T03:11:20;100676.22;;;11.73;83.64
74633;BME280;63139;52.018;8.552;2023-05-07T03:13:48;100683.34;;;11.72;83.25
74633;BME280;63139;52.018;8.552;2023-05-07T03:16:20;100686.00;;;11.72;83.13
74633;BME280;63139;52.018;8.552;2023-05-07T03:18:48;100678.03;;;11.72;83.14
74633;BME280;63139;52.018;8.552;2023-05-07T03:21:17;100673.56;;;11.73;83.39
74633;BME280;63139;52.018;8.552;2023-05-07T03:23:45;100671.28;;;11.70;83.03
74633;BME280;63139;52.018;8.552;2023-05-07T03:26:13;100674.91;;;11.68;83.18
74633;BME280;63139;52.018;8.552;2023-05-07T03:28:43;100675.25;;;11.65;83.29
74633;BME280;63139;52.018;8.552;2023-05-07T03:31:13;100677.91;;;11.65;83.02
74633;BME280;63139;52.018;8.552;2023-05-07T03:33:51;100665.81;;;11.63;83.60
74633;BME280;63139;52.018;8.552;2023-05-07T03:36:20;100676.91;;;11.58;83.56
74633;BME280;63139;52.018;8.552;2023-05-07T03:38:49;100667.66;;;11.54;83.46
74633;BME280;63139;52.018;8.552;2023-05-07T03:41:20;100669.66;;;11.52;83.42
74633;BME280;63139;52.018;8.552;2023-05-07T03:43:48;100670.81;;;11.50;83.30
74633;BME280;63139;52.018;8.552;2023-05-07T03:46:16;100671.31;;;11.45;83.53
74633;BME280;63139;52.018;8.552;2023-05-07T03:48:44;100673.16;;;11.45;83.88
74633;BME280;63139;52.018;8.552;2023-05-07T03:51:15;100680.44;;;11.43;83.90
74633;BME280;63139;52.018;8.552;2023-05-07T03:53:43;100684.91;;;11.42;84.02
74633;BME280;63139;52.018;8.552;2023-05-07T03:56:11;100685.91;;;11.41;84.04
74633;BME280;63139;52.018;8.552;2023-05-07T03:58:41;100689.38;;;11.42;84.00
74633;BME280;63139;52.018;8.552;2023-05-07T04:01:10;100684.91;;;11.42;83.79
74633;BME280;63139;52.018;8.552;2023-05-07T04:03:39;100690.72;;;11.46;83.78
74633;BME280;63139;52.018;8.552;2023-05-07T04:06:07;100689.72;;;11.47;84.10
74633;BME280;63139;52.018;8.552;2023-05-07T04:08:37;100691.03;;;11.51;83.83
74633;BME280;63139;52.018;8.552;2023-05-07T04:11:06;100696.16;;;11.52;83.82
74633;BME280;63139;52.018;8.552;2023-05-07T04:13:36;100699.50;;;11.54;83.55
74633;BME280;63139;52.018;8.552;2023-05-07T04:16:06;100701.16;;;11.55;84.02
74633;BME280;63139;52.018;8.552;2023-05-07T04:18:36;100702.63;;;11.58;83.27
74633;BME280;63139;52.018;8.552;2023-05-07T04:21:05;100708.75;;;11.58;83.71
74633;BME280;63139;52.018;8.552;2023-05-07T04:23:37;100710.41;;;11.59;83.49
74633;BME280;63139;52.018;8.552;2023-05-07T04:26:09;100710.41;;;11.59;83.36
74633;BME280;63139;52.018;8.552;2023-05-07T04:28:41;100718.69;;;11.64;83.16
74633;BME280;63139;52.018;8.552;2023-05-07T04:31:09;100724.81;;;11.65;83.25
74633;BME280;63139;52.018;8.552;2023-05-07T04:33:38;100719.19;;;11.68;83.03
74633;BME280;63139;52.018;8.552;2023-05-07T04:36:10;100720.69;;;11.71;83.05
74633;BME280;63139;52.018;8.552;2023-05-07T04:38:54;100718.81;;;11.71;83.04
74633;BME280;63139;52.018;8.552;2023-05-07T04:41:22;100722.97;;;11.74;83.32
74633;BME280;63139;52.018;8.552;2023-05-07T04:43:50;100720.31;;;11.74;82.97
74633;BME280;63139;52.018;8.552;2023-05-07T04:46:21;100717.38;;;11.77;82.74
74633;BME280;63139;52.018;8.552;2023-05-07T04:48:52;100724.13;;;11.79;82.79
74633;BME280;63139;52.018;8.552;2023-05-07T04:51:20;100722.16;;;11.81;82.84
74633;BME280;63139;52.018;8.552;2023-05-07T04:53:48;100726.94;;;11.86;82.71
74633;BME280;63139;52.018;8.552;2023-05-07T04:56:18;100722.28;;;11.88;82.58
74633;BME280;63139;52.018;8.552;2023-05-07T04:58:47;100724.63;;;11.91;82.62
74633;BME280;63139;52.018;8.552;2023-05-07T05:01:18;100726.09;;;11.93;82.54
74633;BME280;63139;52.018;8.552;2023-05-07T05:03:46;100726.91;;;11.94;82.26
74633;BME280;63139;52.018;8.552;2023-05-07T05:06:15;100731.06;;;11.96;82.19
74633;BME280;63139;52.018;8.552;2023-05-07T05:08:43;100735.03;;;12.00;82.04
74633;BME280;63139;52.018;8.552;2023-05-07T05:11:11;100732.69;;;12.05;81.93
74633;BME280;63139;52.018;8.552;2023-05-07T05:13:41;100737.66;;;12.09;81.69
74633;BME280;63139;52.018;8.552;2023-05-07T05:16:14;100722.22;;;12.12;81.60
74633;BME280;63139;52.018;8.552;2023-05-07T05:18:43;100721.69;;;12.17;81.58
74633;BME280;63139;52.018;8.552;2023-05-07T05:21:14;100723.50;;;12.24;81.15
74633;BME280;63139;52.018;8.552;2023-05-07T05:23:43;100729.59;;;12.33;80.82
74633;BME280;63139;52.018;8.552;2023-05-07T05:26:14;100728.06;;;12.38;80.82
74633;BME280;63139;52.018;8.552;2023-05-07T05:28:43;100734.34;;;12.45;80.73
74633;BME280;63139;52.018;8.552;2023-05-07T05:31:12;100727.16;;;12.54;80.49
74633;BME280;63139;52.018;8.552;2023-05-07T05:33:40;100732.91;;;12.66;79.94
74633;BME280;63139;52.018;8.552;2023-05-07T05:36:09;100730.84;;;12.76;79.49
74633;BME280;63139;52.018;8.552;2023-05-07T05:38:39;100732.09;;;12.88;79.31
74633;BME280;63139;52.018;8.552;2023-05-07T05:41:08;100729.69;;;13.01;78.92
74633;BME280;63139;52.018;8.552;2023-05-07T05:43:36;100738.09;;;13.13;78.48
74633;BME280;63139;52.018;8.552;2023-05-07T05:46:06;100737.03;;;13.22;77.79
74633;BME280;63139;52.018;8.552;2023-05-07T05:48:35;100739.53;;;13.38;77.30
74633;BME280;63139;52.018;8.552;2023-05-07T05:51:05;100735.44;;;13.50;76.79
74633;BME280;63139;52.018;8.552;2023-05-07T05:53:33;100743.09;;;13.68;76.36
74633;BME280;63139;52.018;8.552;2023-05-07T05:56:01;100737.22;;;13.87;75.56
74633;BME280;63139;52.018;8.552;2023-05-07T05:58:31;100741.44;;;13.96;74.99
74633;BME280;63139;52.018;8.552;2023-05-07T06:01:02;100748.25;;;14.14;74.68
74633;BME280;63139;52.018;8.552;2023-05-07T06:03:34;100746.84;;;14.18;74.25
74633;BME280;63139;52.018;8.552;2023-05-07T06:06:06;100753.00;;;14.33;73.79
74633;BME280;63139;52.018;8.552;2023-05-07T06:08:34;100738.31;;;14.52;73.12
74633;BME280;63139;52.018;8.552;2023-05-07T06:11:03;100741.84;;;14.73;72.09
74633;BME280;63139;52.018;8.552;2023-05-07T06:13:35;100744.16;;;14.83;71.73
74633;BME280;63139;52.018;8.552;2023-05-07T06:16:03;100738.53;;;14.93;71.12
74633;BME280;63139;52.018;8.552;2023-05-07T06:18:33;100747.44;;;15.00;71.40
74633;BME280;63139;52.018;8.552;2023-05-07T06:21:03;100747.88;;;15.03;70.88
74633;BME280;63139;52.018;8.552;2023-05-07T06:23:33;100757.34;;;15.06;70.85
74633;BME280;63139;52.018;8.552;2023-05-07T06:26:03;100753.84;;;15.05;69.82
74633;BME280;63139;52.018;8.552;2023-05-07T06:28:37;100761.72;;;15.13;69.92
74633;BME280;63139;52.018;8.552;2023-05-07T06:31:13;100753.41;;;15.23;69.31
74633;BME280;63139;52.018;8.552;2023-05-07T06:33:48;100758.66;;;15.38;69.32
74633;BME280;63139;52.018;8.552;2023-05-07T06:36:17;100765.88;;;15.44;68.63
74633;BME280;63139;52.018;8.552;2023-05-07T06:38:46;100765.66;;;15.60;68.36
74633;BME280;63139;52.018;8.552;2023-05-07T06:41:14;100761.41;;;15.72;67.60
74633;BME280;63139;52.018;8.552;2023-05-07T06:43:43;100768.50;;;15.86;67.79
74633;BME280;63139;52.018;8.552;2023-05-07T06:46:31;100774.56;;;16.02;67.10
74633;BME280;63139;52.018;8.552;2023-05-07T06:49:01;100778.94;;;16.16;66.90
74633;BME280;63139;52.018;8.552;2023-05-07T06:51:30;100776.53;;;16.21;65.78
74633;BME280;63139;52.018;8.552;2023-05-07T06:54:01;100769.56;;;16.26;65.39
74633;BME280;63139;52.018;8.552;2023-05-07T06:56:33;100778.63;;;16.32;65.23
74633;BME280;63139;52.018;8.552;2023-05-07T06:59:03;100781.75;;;16.36;65.38
74633;BME280;63139;52.018;8.552;2023-05-07T07:01:35;100785.09;;;16.51;65.41
74633;BME280;63139;52.018;8.552;2023-05-07T07:04:07;100784.19;;;16.72;64.60
74633;BME280;63139;52.018;8.552;2023-05-07T07:06:36;100783.00;;;16.87;64.40
74633;BME280;63139;52.018;8.552;2023-05-07T07:09:08;100788.56;;;16.92;64.27
74633;BME280;63139;52.018;8.552;2023-05-07T07:11:36;100785.09;;;17.05;64.14
74633;BME280;63139;52.018;8.552;2023-05-07T07:14:05;100784.69;;;17.08;63.01
74633;BME280;63139;52.018;8.552;2023-05-07T07:16:40;100780.56;;;17.05;62.95
74633;BME280;63139;52.018;8.552;2023-05-07T07:19:09;100783.47;;;17.24;63.17
74633;BME280;63139;52.018;8.552;2023-05-07T07:21:37;100774.84;;;17.28;62.62
74633;BME280;63139;52.018;8.552;2023-05-07T07:24:06;100776.50;;;17.36;62.70
74633;BME280;63139;52.018;8.552;2023-05-07T07:26:34;100788.03;;;17.50;61.64
74633;BME280;63139;52.018;8.552;2023-05-07T07:29:02;100782.47;;;17.58;61.99
74633;BME280;63139;52.018;8.552;2023-05-07T07:31:31;100781.66;;;17.83;61.65
74633;BME280;63139;52.018;8.552;2023-05-07T07:33:59;100788.84;;;18.03;61.33
74633;BME280;63139;52.018;8.552;2023-05-07T07:36:29;100796.25;;;18.14;59.91
74633;BME280;63139;52.018;8.552;2023-05-07T07:39:13;100790.72;;;17.96;59.88
74633;BME280;63139;52.018;8.552;2023-05-07T07:41:42;100804.50;;;18.06;59.82
74633;BME280;63139;52.018;8.552;2023-05-07T07:44:11;100798.31;;;18.05;59.89
74633;BME280;63139;52.018;8.552;2023-05-07T07:46:45;100793.34;;;18.09;59.74
74633;BME280;63139;52.018;8.552;2023-05-07T07:49:14;100794.78;;;18.18;59.98
74633;BME280;63139;52.018;8.552;2023-05-07T07:51:44;100793.72;;;18.32;59.43
74633;BME280;63139;52.018;8.552;2023-05-07T07:54:13;100790.41;;;18.37;58.23
74633;BME280;63139;52.018;8.552;2023-05-07T07:56:41;100790.81;;;18.40;58.78
74633;BME280;63139;52.018;8.552;2023-05-07T07:59:10;100798.22;;;18.38;58.61
74633;BME280;63139;52.018;8.552;2023-05-07T08:01:40;100801.31;;;18.42;58.76
74633;BME280;63139;52.018;8.552;2023-05-07T08:04:09;100794.09;;;18.42;57.57
74633;BME280;63139;52.018;8.552;2023-05-07T08:06:40;100790.41;;;18.43;58.21
74633;BME280;63139;52.018;8.552;2023-05-07T08:09:11;100785.00;;;18.50;57.73
74633;BME280;63139;52.018;8.552;2023-05-07T08:11:41;100796.53;;;18.64;57.62
74633;BME280;63139;52.018;8.552;2023-05-07T08:14:09;100786.22;;;18.60;57.62
74633;BME280;63139;52.018;8.552;2023-05-07T08:16:37;100791.50;;;18.80;56.90
74633;BME280;63139;52.018;8.552;2023-05-07T08:19:06;100798.44;;;18.94;56.29
74633;BME280;63139;52.018;8.552;2023-05-07T08:21:34;100801.25;;;19.06;56.78
74633;BME280;63139;52.018;8.552;2023-05-07T08:24:03;100781.44;;;19.07;55.52
74633;BME280;63139;52.018;8.552;2023-05-07T08:26:33;100799.09;;;19.21;55.83
74633;BME280;63139;52.018;8.552;2023-05-07T08:29:02;100798.88;;;19.23;55.64
74633;BME280;63139;52.018;8.552;2023-05-07T08:31:30;100801.97;;;19.26;55.56
74633;BME280;63139;52.018;8.552;2023-05-07T08:33:59;100793.38;;;19.43;54.86
74633;BME280;63139;52.018;8.552;2023-05-07T08:36:27;100801.47;;;19.67;54.50
74633;BME280;63139;52.018;8.552;2023-05-07T08:38:56;100792.88;;;19.84;54.07
74633;BME280;63139;52.018;8.552;2023-05-07T08:41:25;100798.66;;;19.81;52.80
74633;BME280;63139;52.018;8.552;2023-05-07T08:43:58;100796.66;;;19.76;51.93
74633;BME280;63139;52.018;8.552;2023-05-07T08:46:30;100795.69;;;19.70;53.21
74633;BME280;63139;52.018;8.552;2023-05-07T08:48:59;100791.66;;;19.55;52.54
74633;BME280;63139;52.018;8.552;2023-05-07T08:51:27;100793.25;;;19.62;53.62
74633;BME280;63139;52.018;8.552;2023-05-07T08:53:55;100793.75;;;19.53;53.35
74633;BME280;63139;52.018;8.552;2023-05-07T08:56:28;100803.25;;;19.55;53.49
74633;BME280;63139;52.018;8.552;2023-05-07T08:58:58;100793.31;;;19.56;53.13
74633;BME280;63139;52.018;8.552;2023-05-07T09:01:28;100791.81;;;19.60;53.46
74633;BME280;63139;52.018;8.552;2023-05-07T09:03:57;100799.94;;;19.53;53.67
74633;BME280;63139;52.018;8.552;2023-05-07T09:06:27;100802.41;;;19.55;53.17
74633;BME280;63139;52.018;8.552;2023-05-07T09:08:56;100804.78;;;19.38;53.32
74633;BME280;63139;52.018;8.552;2023-05-07T09:11:28;100802.91;;;19.38;53.38
74633;BME280;63139;52.018;8.552;2023-05-07T09:14:00;100811.50;;;19.54;53.28
74633;BME280;63139;52.018;8.552;2023-05-07T09:16:34;100821.47;;;19.71;53.27
74633;BME280;63139;52.018;8.552;2023-05-07T09:19:03;100814.44;;;19.77;52.60
74633;BME280;63139;52.018;8.552;2023-05-07T09:21:31;100809.13;;;19.89;52.74
74633;BME280;63139;52.018;8.552;2023-05-07T09:24:02;100813.63;;;19.95;52.18
74633;BME280;63139;52.018;8.552;2023-05-07T09:26:38;100805.75;;;20.00;51.55
74633;BME280;63139;52.018;8.552;2023-05-07T09:29:10;100808.94;;;20.08;51.63
74633;BME280;63139;52.018;8.552;2023-05-07T09:31:39;100805.13;;;20.41;51.54
74633;BME280;63139;52.018;8.552;2023-05-07T09:34:10;100812.75;;;20.44;51.01
74633;BME280;63139;52.018;8.552;2023-05-07T09:36:42;100810.34;;;20.54;51.32
74633;BME280;63139;52.018;8.552;2023-05-07T09:39:11;100804.97;;;20.36;51.59
74633;BME280;63139;52.018;8.552;2023-05-07T09:41:46;100804.06;;;20.42;51.26
74633;BME280;63139;52.018;8.552;2023-05-07T09:44:24;100798.81;;;20.29;51.09
74633;BME280;63139;52.018;8.552;2023-05-07T09:46:54;100800.41;;;20.36;51.89
74633;BME280;63139;52.018;8.552;2023-05-07T09:49:34;100808.19;;;20.44;51.25
74633;BME280;63139;52.018;8.552;2023-05-07T09:52:07;100810.03;;;20.62;51.44
74633;BME280;63139;52.018;8.552;2023-05-07T09:54:41;100805.19;;;20.52;51.54
74633;BME280;63139;52.018;8.552;2023-05-07T09:57:13;100799.66;;;20.66;50.82
74633;BME280;63139;52.018;8.552;2023-05-07T09:59:46;100798.09;;;20.58;50.47
74633;BME280;63139;52.018;8.552;2023-05-07T10:02:18;100796.41;;;20.21;50.79
74633;BME280;63139;52.018;8.552;2023-05-07T10:04:51;100804.44;;;20.02;51.30
74633;BME280;63139;52.018;8.552;2023-05-07T10:07:25;100800.78;;;19.97;52.15
74633;BME280;63139;52.018;8.552;2023-05-07T10:09:58;100796.47;;;19.96;52.09
74633;BME280;63139;52.018;8.552;2023-05-07T10:12:32;100803.47;;;19.97;52.82
74633;BME280;63139;52.018;8.552;2023-05-07T10:15:12;100804.59;;;19.89;52.16
74633;BME280;63139;52.018;8.552;2023-05-07T10:17:45;100801.13;;;19.82;52.69
74633;BME280;63139;52.018;8.552;2023-05-07T10:20:13;100802.78;;;19.58;53.14
74633;BME280;63139;52.018;8.552;2023-05-07T10:22:47;100808.81;;;19.54;53.14
74633;BME280;63139;52.018;8.552;2023-05-07T10:25:23;100806.28;;;19.59;53.23
74633;BME280;63139;52.018;8.552;2023-05-07T10:27:56;100807.25;;;19.39;53.84
74633;BME280;63139;52.018;8.552;2023-05-07T10:30:32;100811.97;;;19.44;53.39
74633;BME280;63139;52.018;8.552;2023-05-07T10:33:07;100804.72;;;19.45;53.82
74633;BME280;63139;52.018;8.552;2023-05-07T10:35:43;100812.78;;;19.45;53.93
74633;BME280;63139;52.018;8.552;2023-05-07T10:38:13;100803.38;;;19.29;53.97
74633;BME280;63139;52.018;8.552;2023-05-07T10:40:43;100813.19;;;19.17;53.93
74633;BME280;63139;52.018;8.552;2023-05-07T10:43:16;100816.66;;;19.24;54.24
74633;BME280;63139;52.018;8.552;2023-05-07T10:46:13;100812.72;;;19.26;54.38
74633;BME280;63139;52.018;8.552;2023-05-07T10:49:11;100819.47;;;19.04;53.94
74633;BME280;63139;52.018;8.552;2023-05-07T10:52:15;100817.63;;;18.98;54.82
74633;BME280;63139;52.018;8.552;2023-05-07T10:55:20;100820.09;;;18.99;55.02
74633;BME280;63139;52.018;8.552;2023-05-07T10:58:25;100811.88;;;18.94;54.57
74633;BME280;63139;52.018;8.552;2023-05-07T11:01:52;100816.81;;;18.91;55.00
74633;BME280;63139;52.018;8.552;2023-05-07T11:04:45;100810.66;;;18.84;55.54
74633;BME280;63139;52.018;8.552;2023-05-07T11:07:34;100808.19;;;18.82;55.50
74633;BME280;63139;52.018;8.552;2023-05-07T11:10:10;100805.06;;;18.92;55.17
74633;BME280;63139;52.018;8.552;2023-05-07T11:12:52;100805.44;;;19.02;54.93
74633;BME280;63139;52.018;8.552;2023-05-07T11:15:45;100816.13;;;19.09;54.64
74633;BME280;63139;52.018;8.552;2023-05-07T11:18:46;100806.53;;;19.19;54.94
74633;BME280;63139;52.018;8.552;2023-05-07T11:21:35;100812.22;;;19.36;54.50
74633;BME280;63139;52.018;8.552;2023-05-07T11:24:16;100815.53;;;19.38;54.15
74633;BME280;63139;52.018;8.552;2023-05-07T11:26:50;100812.16;;;19.49;54.21
74633;BME280;63139;52.018;8.552;2023-05-07T11:29:21;100808.81;;;19.54;53.97
74633;BME280;63139;52.018;8.552;2023-05-07T11:31:55;100822.09;;;19.49;53.88
74633;BME280;63139;52.018;8.552;2023-05-07T11:34:30;100804.28;;;19.54;54.33
74633;BME280;63139;52.018;8.552;2023-05-07T11:37:00;100800.31;;;19.57;54.86
74633;BME280;63139;52.018;8.552;2023-05-07T11:39:48;100813.81;;;19.44;54.73
74633;BME280;63139;52.018;8.552;2023-05-07T11:42:28;100800.59;;;19.49;54.90
74633;BME280;63139;52.018;8.552;2023-05-07T11:44:56;100803.88;;;19.51;54.75
74633;BME280;63139;52.018;8.552;2023-05-07T11:47:24;100811.31;;;19.55;54.43
74633;BME280;63139;52.018;8.552;2023-05-07T11:49:54;100800.16;;;19.52;53.79
74633;BME280;63139;52.018;8.552;2023-05-07T11:52:24;100803.56;;;19.65;54.08
74633;BME280;63139;52.018;8.552;2023-05-07T11:54:53;100804.09;;;19.74;53.94
74633;BME280;63139;52.018;8.552;2023-05-07T11:57:22;100799.06;;;19.84;53.35
74633;BME280;63139;52.018;8.552;2023-05-07T11:59:52;100792.00;;;20.08;53.06
74633;BME280;63139;52.018;8.552;2023-05-07T12:02:21;100797.59;;;20.25;52.35
74633;BME280;63139;52.018;8.552;2023-05-07T12:04:51;100798.66;;;20.24;52.11
74633;BME280;63139;52.018;8.552;2023-05-07T12:07:23;100793.13;;;20.19;51.81
74633;BME280;63139;52.018;8.552;2023-05-07T12:09:52;100800.97;;;20.20;52.12
74633;BME280;63139;52.018;8.552;2023-05-07T12:12:21;100802.66;;;20.39;52.63
74633;BME280;63139;52.018;8.552;2023-05-07T12:14:49;100796.00;;;20.42;52.21
74633;BME280;63139;52.018;8.552;2023-05-07T12:17:17;100807.44;;;20.56;52.15
74633;BME280;63139;52.018;8.552;2023-05-07T12:19:46;100806.50;;;20.62;52.68
74633;BME280;63139;52.018;8.552;2023-05-07T12:22:14;100804.94;;;20.72;52.56
74633;BME280;63139;52.018;8.552;2023-05-07T12:24:45;100808.97;;;20.81;52.10
74633;BME280;63139;52.018;8.552;2023-05-07T12:27:14;100795.19;;;20.89;52.24
74633;BME280;63139;52.018;8.552;2023-05-07T12:29:44;100806.72;;;20.78;51.80
74633;BME280;63139;52.018;8.552;2023-05-07T12:32:13;100810.28;;;20.90;52.36
74633;BME280;63139;52.018;8.552;2023-05-07T12:34:43;100815.97;;;20.82;51.85
74633;BME280;63139;52.018;8.552;2023-05-07T12:37:11;100807.41;;;20.74;51.88
74633;BME280;63139;52.018;8.552;2023-05-07T12:39:47;100822.66;;;20.80;52.11
74633;BME280;63139;52.018;8.552;2023-05-07T12:42:16;100822.56;;;20.86;51.72
74633;BME280;63139;52.018;8.552;2023-05-07T12:44:45;100818.88;;;20.99;51.79
74633;BME280;63139;52.018;8.552;2023-05-07T12:47:14;100826.13;;;21.17;51.60
74633;BME280;63139;52.018;8.552;2023-05-07T12:49:43;100823.22;;;21.18;50.78
74633;BME280;63139;52.018;8.552;2023-05-07T12:52:12;100821.09;;;21.20;50.54
74633;BME280;63139;52.018;8.552;2023-05-07T12:54:41;100826.38;;;21.27;50.50
74633;BME280;63139;52.018;8.552;2023-05-07T12:57:10;100827.44;;;21.26;49.95
74633;BME280;63139;52.018;8.552;2023-05-07T12:59:40;100820.31;;;21.32;49.89
74633;BME280;63139;52.018;8.552;2023-05-07T13:02:09;100822.78;;;21.33;50.16
74633;BME280;63139;52.018;8.552;2023-05-07T13:04:39;100822.47;;;21.53;50.02
74633;BME280;63139;52.018;8.552;2023-05-07T13:07:07;100826.59;;;21.55;49.62
74633;BME280;63139;52.018;8.552;2023-05-07T13:09:35;100827.63;;;21.66;49.70
74633;BME280;63139;52.018;8.552;2023-05-07T13:12:04;100817.78;;;21.72;49.50